Wednesday, May 23, 2018, 9:09 AM EDT
Back to Local

KASH, Nashua, Boire Field Airport

Location: Nashua, NH, United States Lat: 42.782
Local Time: 9:09 AM EDT (13:09 GMT) Lon: -71.515
Time Zone: US/Eastern Elev: 200 ft

Show me the last for .
Show Decoded

2018-05-23 08:56 METAR KASH 231256Z 32013KT 10SM BKN038 19/13 A2988 RMK AO2 SLP128 T01890133 =
2018-05-23 07:56 METAR KASH 231156Z COR 30004KT 10SM SCT023 16/13 A2988 RMK AO2 SLP127 70001
                 T01560133 10156 20117 50007 =
2018-05-23 06:56 METAR KASH 231056Z 00000KT 10SM SCT055 13/13 A2988 RMK AO2 SLP128 T01330128 =
2018-05-23 05:56 METAR KASH 230956Z AUTO 00000KT 10SM FEW023 BKN055 12/12 A2987 RMK AO2 SLP125
                 T01220122 =
2018-05-23 04:56 METAR KASH 230856Z AUTO 00000KT 10SM FEW015 SCT028 BKN070 12/12 A2986 RMK AO2
                 SLP120 T01170117 56012 =
2018-05-23 04:47 METAR KASH 230847Z AUTO 00000KT 10SM SCT015 BKN030 12/12 A2986 RMK AO2 =
2018-05-23 03:56 METAR KASH 230756Z AUTO 00000KT 10SM OVC017 13/12 A2986 RMK AO2 SLP120 T01280122
                 =
2018-05-23 02:56 METAR KASH 230656Z AUTO 00000KT 10SM OVC015 13/12 A2987 RMK AO2 SLP123 T01280117
                 =
2018-05-23 01:56 METAR KASH 230556Z AUTO 00000KT 10SM OVC015 13/12 A2989 RMK AO2 SLP132 T01280117
                 10144 20128 58020 =
2018-05-23 00:56 METAR KASH 230456Z AUTO VRB03KT 10SM OVC017 13/11 A2992 RMK AO2 SLP140 T01330111
                 =
2018-05-22 23:56 METAR KASH 230356Z AUTO 00000KT 10SM SCT021 OVC028 13/11 A2993 RMK AO2 SLP145
                 T01330106 401830094 =
2018-05-22 22:56 METAR KASH 230256Z AUTO 19004KT 10SM OVC028 13/10 A2995 RMK AO2 SLP153 T01330100
                 58017 =
2018-05-22 21:56 METAR KASH 230156Z AUTO VRB04KT 10SM OVC043 14/10 A2997 RMK AO2 SLP159 T01390100
                 =
2018-05-22 20:56 METAR KASH 230056Z 00000KT 10SM BKN049 OVC060 14/10 A3000 RMK AO2 SLP168
                 T01390100 =
2018-05-22 19:56 METAR KASH 222356Z 15006KT 10SM CLR 14/10 A3000 RMK AO2 RAE35 SLP170 P0000 60000
                 T01440100 10183 20144 56022 =
2018-05-22 18:56 METAR KASH 222256Z COR 22006G14KT 10SM -RA BKN065 BKN090 OVC120 16/11 A3002 RMK
                 AO2 RAB55 SLP178 P0000 T01560111 =
2018-05-22 17:56 METAR KASH 222156Z VRB04KT 10SM BKN075 OVC090 17/14 A3003 RMK AO2 RAE17 SLP179
                 P0000 T01720139 =
2018-05-22 16:56 METAR KASH 222056Z 00000KT 10SM -RA OVC075 18/16 A3007 RMK AO2 SLP192 P0000
                 60000 T01780161 56021 =
2018-05-22 15:56 METAR KASH 221956Z 00000KT 10SM -RA OVC080 18/16 A3007 RMK AO2 SLP194 P0000
                 T01780156 =
2018-05-22 14:56 METAR KASH 221856Z 12005KT 10SM -RA OVC100 18/14 A3009 RMK AO2 SLP199 P0000
                 T01780144 =
2018-05-22 13:56 METAR KASH 221756Z 00000KT 10SM -RA OVC100 18/14 A3013 RMK AO2 SLP213 P0001
                 60001 T01780144 10183 20139 56012 =
2018-05-22 12:56 METAR KASH 221656Z 00000KT 10SM -RA OVC100 18/16 A3013 RMK AO2 SLP214 P0000
                 T01780156 =
2018-05-22 11:56 METAR KASH 221556Z 00000KT 10SM -RA OVC090 17/15 A3016 RMK AO2 RAB1459 SLP223
                 P0000 T01720150 =
2018-05-22 10:56 METAR KASH 221456Z VRB03KT 10SM SCT060 OVC090 18/12 A3016 RMK AO2 SLP224
                 T01780122 58003 =
2018-05-22 09:56 METAR KASH 221356Z 15004KT 10SM OVC100 17/12 A3016 RMK AO2 SLP224 T01670117 =

Support USWX by starting your Amazon purchase here.